sensor_id;sensor_type;location;lat;lon;timestamp;P1;durP1;ratioP1;P2;durP2;ratioP2
7074;SDS011;3578;51.568;6.932;2022-08-01T00:02:20;25.13;;;22.43;;
7074;SDS011;3578;51.568;6.932;2022-08-01T00:04:48;27.83;;;20.57;;
7074;SDS011;3578;51.568;6.932;2022-08-01T00:07:16;31.13;;;23.00;;
7074;SDS011;3578;51.568;6.932;2022-08-01T00:09:43;29.97;;;23.90;;
7074;SDS011;3578;51.568;6.932;2022-08-01T00:12:10;26.90;;;22.63;;
7074;SDS011;3578;51.568;6.932;2022-08-01T00:14:37;33.40;;;24.90;;
7074;SDS011;3578;51.568;6.932;2022-08-01T00:17:04;31.60;;;24.93;;
7074;SDS011;3578;51.568;6.932;2022-08-01T00:19:31;31.93;;;23.93;;
7074;SDS011;3578;51.568;6.932;2022-08-01T00:21:59;31.03;;;24.60;;
7074;SDS011;3578;51.568;6.932;2022-08-01T00:24:27;32.70;;;24.57;;
7074;SDS011;3578;51.568;6.932;2022-08-01T00:26:54;33.07;;;24.70;;
7074;SDS011;3578;51.568;6.932;2022-08-01T00:29:21;32.60;;;24.47;;
7074;SDS011;3578;51.568;6.932;2022-08-01T00:31:49;31.87;;;26.20;;
7074;SDS011;3578;51.568;6.932;2022-08-01T00:34:15;31.90;;;24.63;;
7074;SDS011;3578;51.568;6.932;2022-08-01T00:36:42;34.50;;;26.37;;
7074;SDS011;3578;51.568;6.932;2022-08-01T00:39:11;39.97;;;27.03;;
7074;SDS011;3578;51.568;6.932;2022-08-01T00:41:40;35.27;;;26.37;;
7074;SDS011;3578;51.568;6.932;2022-08-01T00:44:07;36.87;;;26.00;;
7074;SDS011;3578;51.568;6.932;2022-08-01T00:46:34;33.73;;;25.70;;
7074;SDS011;3578;51.568;6.932;2022-08-01T00:49:01;36.00;;;26.73;;
7074;SDS011;3578;51.568;6.932;2022-08-01T00:51:28;26.43;;;21.57;;
7074;SDS011;3578;51.568;6.932;2022-08-01T00:53:55;30.20;;;24.93;;
7074;SDS011;3578;51.568;6.932;2022-08-01T00:56:23;33.00;;;24.00;;
7074;SDS011;3578;51.568;6.932;2022-08-01T00:58:54;37.23;;;26.00;;
7074;SDS011;3578;51.568;6.932;2022-08-01T01:01:21;34.50;;;25.63;;
7074;SDS011;3578;51.568;6.932;2022-08-01T01:03:50;32.70;;;25.93;;
7074;SDS011;3578;51.568;6.932;2022-08-01T01:06:22;31.80;;;24.97;;
7074;SDS011;3578;51.568;6.932;2022-08-01T01:09:01;26.53;;;21.97;;
7074;SDS011;3578;51.568;6.932;2022-08-01T01:11:43;28.97;;;22.00;;
7074;SDS011;3578;51.568;6.932;2022-08-01T01:14:27;29.10;;;23.23;;
7074;SDS011;3578;51.568;6.932;2022-08-01T01:17:00;26.57;;;21.70;;
7074;SDS011;3578;51.568;6.932;2022-08-01T01:19:33;31.20;;;23.30;;
7074;SDS011;3578;51.568;6.932;2022-08-01T01:22:18;34.60;;;24.23;;
7074;SDS011;3578;51.568;6.932;2022-08-01T01:25:09;34.87;;;26.90;;
7074;SDS011;3578;51.568;6.932;2022-08-01T01:27:55;31.97;;;25.70;;
7074;SDS011;3578;51.568;6.932;2022-08-01T01:30:35;38.30;;;26.70;;
7074;SDS011;3578;51.568;6.932;2022-08-01T01:33:05;40.00;;;26.67;;
7074;SDS011;3578;51.568;6.932;2022-08-01T01:35:36;30.87;;;25.27;;
7074;SDS011;3578;51.568;6.932;2022-08-01T01:38:08;37.17;;;25.00;;
7074;SDS011;3578;51.568;6.932;2022-08-01T01:40:40;37.57;;;26.43;;
7074;SDS011;3578;51.568;6.932;2022-08-01T01:43:10;36.83;;;25.80;;
7074;SDS011;3578;51.568;6.932;2022-08-01T01:45:40;37.53;;;26.80;;
7074;SDS011;3578;51.568;6.932;2022-08-01T01:48:10;41.13;;;27.33;;
7074;SDS011;3578;51.568;6.932;2022-08-01T01:50:40;39.20;;;27.80;;
7074;SDS011;3578;51.568;6.932;2022-08-01T01:53:12;31.40;;;24.93;;
7074;SDS011;3578;51.568;6.932;2022-08-01T01:55:43;45.73;;;26.60;;
7074;SDS011;3578;51.568;6.932;2022-08-01T01:58:13;36.10;;;26.80;;
7074;SDS011;3578;51.568;6.932;2022-08-01T02:00:46;36.23;;;26.07;;
7074;SDS011;3578;51.568;6.932;2022-08-01T02:03:15;43.57;;;28.40;;
7074;SDS011;3578;51.568;6.932;2022-08-01T02:05:43;37.63;;;28.40;;
7074;SDS011;3578;51.568;6.932;2022-08-01T02:08:12;40.40;;;28.17;;
7074;SDS011;3578;51.568;6.932;2022-08-01T02:10:42;45.43;;;31.03;;
7074;SDS011;3578;51.568;6.932;2022-08-01T02:13:32;34.87;;;27.07;;
7074;SDS011;3578;51.568;6.932;2022-08-01T02:16:04;37.50;;;27.63;;
7074;SDS011;3578;51.568;6.932;2022-08-01T02:18:32;41.77;;;29.73;;
7074;SDS011;3578;51.568;6.932;2022-08-01T02:20:59;47.03;;;29.53;;
7074;SDS011;3578;51.568;6.932;2022-08-01T02:23:31;46.80;;;29.63;;
7074;SDS011;3578;51.568;6.932;2022-08-01T02:26:00;46.77;;;30.93;;
7074;SDS011;3578;51.568;6.932;2022-08-01T02:28:34;43.43;;;29.07;;
7074;SDS011;3578;51.568;6.932;2022-08-01T02:31:10;41.77;;;27.07;;
7074;SDS011;3578;51.568;6.932;2022-08-01T02:33:43;47.93;;;30.90;;
7074;SDS011;3578;51.568;6.932;2022-08-01T02:36:12;41.47;;;28.50;;
7074;SDS011;3578;51.568;6.932;2022-08-01T02:38:43;39.50;;;27.30;;
7074;SDS011;3578;51.568;6.932;2022-08-01T02:41:12;50.73;;;30.07;;
7074;SDS011;3578;51.568;6.932;2022-08-01T02:43:48;46.33;;;27.70;;
7074;SDS011;3578;51.568;6.932;2022-08-01T02:46:21;48.47;;;30.80;;
7074;SDS011;3578;51.568;6.932;2022-08-01T02:48:52;54.57;;;31.57;;
7074;SDS011;3578;51.568;6.932;2022-08-01T02:51:21;49.20;;;30.70;;
7074;SDS011;3578;51.568;6.932;2022-08-01T02:53:51;46.03;;;29.53;;
7074;SDS011;3578;51.568;6.932;2022-08-01T02:56:19;41.73;;;28.20;;
7074;SDS011;3578;51.568;6.932;2022-08-01T02:58:48;39.83;;;27.03;;
7074;SDS011;3578;51.568;6.932;2022-08-01T03:01:17;42.33;;;26.73;;
7074;SDS011;3578;51.568;6.932;2022-08-01T03:03:47;47.80;;;31.30;;
7074;SDS011;3578;51.568;6.932;2022-08-01T03:06:14;46.53;;;30.40;;
7074;SDS011;3578;51.568;6.932;2022-08-01T03:08:43;52.00;;;32.30;;
7074;SDS011;3578;51.568;6.932;2022-08-01T03:11:11;52.70;;;31.07;;
7074;SDS011;3578;51.568;6.932;2022-08-01T03:13:40;53.07;;;31.40;;
7074;SDS011;3578;51.568;6.932;2022-08-01T03:16:09;54.70;;;30.70;;
7074;SDS011;3578;51.568;6.932;2022-08-01T03:18:37;49.60;;;30.80;;
7074;SDS011;3578;51.568;6.932;2022-08-01T03:21:09;54.13;;;31.80;;
7074;SDS011;3578;51.568;6.932;2022-08-01T03:23:38;55.07;;;31.40;;
7074;SDS011;3578;51.568;6.932;2022-08-01T03:26:06;54.80;;;32.87;;
7074;SDS011;3578;51.568;6.932;2022-08-01T03:28:34;53.57;;;29.80;;
7074;SDS011;3578;51.568;6.932;2022-08-01T03:31:03;50.17;;;30.93;;
7074;SDS011;3578;51.568;6.932;2022-08-01T03:33:31;57.40;;;31.40;;
7074;SDS011;3578;51.568;6.932;2022-08-01T03:35:58;70.17;;;32.40;;
7074;SDS011;3578;51.568;6.932;2022-08-01T03:38:29;61.30;;;30.83;;
7074;SDS011;3578;51.568;6.932;2022-08-01T03:41:02;64.00;;;31.77;;
7074;SDS011;3578;51.568;6.932;2022-08-01T03:43:38;59.57;;;31.83;;
7074;SDS011;3578;51.568;6.932;2022-08-01T03:46:13;55.43;;;31.47;;
7074;SDS011;3578;51.568;6.932;2022-08-01T03:48:46;53.90;;;31.47;;
7074;SDS011;3578;51.568;6.932;2022-08-01T03:51:16;64.70;;;32.53;;
7074;SDS011;3578;51.568;6.932;2022-08-01T03:53:46;55.47;;;31.97;;
7074;SDS011;3578;51.568;6.932;2022-08-01T03:56:16;52.20;;;32.47;;
7074;SDS011;3578;51.568;6.932;2022-08-01T03:58:46;54.93;;;31.47;;
7074;SDS011;3578;51.568;6.932;2022-08-01T04:01:15;46.70;;;29.73;;
7074;SDS011;3578;51.568;6.932;2022-08-01T04:03:43;52.77;;;32.27;;
7074;SDS011;3578;51.568;6.932;2022-08-01T04:06:11;62.53;;;33.30;;
7074;SDS011;3578;51.568;6.932;2022-08-01T04:08:39;57.37;;;32.30;;
7074;SDS011;3578;51.568;6.932;2022-08-01T04:11:09;57.50;;;30.37;;
7074;SDS011;3578;51.568;6.932;2022-08-01T04:13:37;62.93;;;30.33;;
7074;SDS011;3578;51.568;6.932;2022-08-01T04:16:04;54.87;;;30.40;;
7074;SDS011;3578;51.568;6.932;2022-08-01T04:18:31;54.73;;;31.07;;
7074;SDS011;3578;51.568;6.932;2022-08-01T04:20:59;59.90;;;33.27;;
7074;SDS011;3578;51.568;6.932;2022-08-01T04:23:26;55.50;;;30.33;;
7074;SDS011;3578;51.568;6.932;2022-08-01T04:25:56;58.13;;;30.73;;
7074;SDS011;3578;51.568;6.932;2022-08-01T04:28:26;58.93;;;30.00;;
7074;SDS011;3578;51.568;6.932;2022-08-01T04:30:55;52.93;;;30.67;;
7074;SDS011;3578;51.568;6.932;2022-08-01T04:33:25;55.37;;;29.50;;
7074;SDS011;3578;51.568;6.932;2022-08-01T04:35:54;60.13;;;30.83;;
7074;SDS011;3578;51.568;6.932;2022-08-01T04:38:25;53.90;;;29.60;;
7074;SDS011;3578;51.568;6.932;2022-08-01T04:40:54;56.07;;;30.93;;
7074;SDS011;3578;51.568;6.932;2022-08-01T04:43:22;48.60;;;28.80;;
7074;SDS011;3578;51.568;6.932;2022-08-01T04:45:51;49.97;;;29.03;;
7074;SDS011;3578;51.568;6.932;2022-08-01T04:48:20;48.20;;;27.50;;
7074;SDS011;3578;51.568;6.932;2022-08-01T04:50:49;50.77;;;28.20;;
7074;SDS011;3578;51.568;6.932;2022-08-01T04:53:17;53.70;;;28.13;;
7074;SDS011;3578;51.568;6.932;2022-08-01T04:55:47;53.87;;;29.17;;
7074;SDS011;3578;51.568;6.932;2022-08-01T04:58:14;52.10;;;29.23;;
7074;SDS011;3578;51.568;6.932;2022-08-01T05:00:42;49.87;;;26.60;;
7074;SDS011;3578;51.568;6.932;2022-08-01T05:03:11;51.30;;;27.60;;
7074;SDS011;3578;51.568;6.932;2022-08-01T05:05:38;47.53;;;26.27;;
7074;SDS011;3578;51.568;6.932;2022-08-01T05:08:05;52.23;;;26.07;;
7074;SDS011;3578;51.568;6.932;2022-08-01T05:10:32;50.40;;;25.70;;
7074;SDS011;3578;51.568;6.932;2022-08-01T05:12:59;45.17;;;24.50;;
7074;SDS011;3578;51.568;6.932;2022-08-01T05:15:26;53.03;;;26.53;;
7074;SDS011;3578;51.568;6.932;2022-08-01T05:17:53;47.13;;;24.37;;
7074;SDS011;3578;51.568;6.932;2022-08-01T05:20:22;44.87;;;25.00;;
7074;SDS011;3578;51.568;6.932;2022-08-01T05:22:49;52.30;;;25.27;;
7074;SDS011;3578;51.568;6.932;2022-08-01T05:25:16;50.30;;;26.80;;
7074;SDS011;3578;51.568;6.932;2022-08-01T05:27:43;50.40;;;26.07;;
7074;SDS011;3578;51.568;6.932;2022-08-01T05:30:11;45.23;;;23.60;;
7074;SDS011;3578;51.568;6.932;2022-08-01T05:32:38;47.80;;;24.00;;
7074;SDS011;3578;51.568;6.932;2022-08-01T05:35:06;46.43;;;24.80;;
7074;SDS011;3578;51.568;6.932;2022-08-01T05:37:35;43.50;;;23.97;;
7074;SDS011;3578;51.568;6.932;2022-08-01T05:40:03;40.97;;;23.60;;
7074;SDS011;3578;51.568;6.932;2022-08-01T05:42:31;48.83;;;25.03;;
7074;SDS011;3578;51.568;6.932;2022-08-01T05:44:58;44.27;;;23.17;;
7074;SDS011;3578;51.568;6.932;2022-08-01T05:47:25;45.00;;;25.40;;
7074;SDS011;3578;51.568;6.932;2022-08-01T05:49:52;47.93;;;25.60;;
7074;SDS011;3578;51.568;6.932;2022-08-01T05:52:20;46.63;;;25.77;;
7074;SDS011;3578;51.568;6.932;2022-08-01T05:54:48;54.27;;;25.17;;
7074;SDS011;3578;51.568;6.932;2022-08-01T05:57:15;50.87;;;24.30;;
7074;SDS011;3578;51.568;6.932;2022-08-01T05:59:42;42.37;;;21.73;;
7074;SDS011;3578;51.568;6.932;2022-08-01T06:02:09;42.07;;;22.90;;
7074;SDS011;3578;51.568;6.932;2022-08-01T06:04:36;43.53;;;22.67;;
7074;SDS011;3578;51.568;6.932;2022-08-01T06:07:03;39.53;;;21.30;;
7074;SDS011;3578;51.568;6.932;2022-08-01T06:09:30;44.33;;;22.87;;
7074;SDS011;3578;51.568;6.932;2022-08-01T06:11:58;46.63;;;22.90;;
7074;SDS011;3578;51.568;6.932;2022-08-01T06:14:25;43.20;;;22.70;;
7074;SDS011;3578;51.568;6.932;2022-08-01T06:16:52;44.77;;;24.57;;
7074;SDS011;3578;51.568;6.932;2022-08-01T06:19:20;40.20;;;22.50;;
7074;SDS011;3578;51.568;6.932;2022-08-01T06:21:47;35.50;;;22.43;;
7074;SDS011;3578;51.568;6.932;2022-08-01T06:24:14;38.43;;;21.67;;
7074;SDS011;3578;51.568;6.932;2022-08-01T06:26:41;40.73;;;22.13;;
7074;SDS011;3578;51.568;6.932;2022-08-01T06:29:09;31.50;;;19.97;;
7074;SDS011;3578;51.568;6.932;2022-08-01T06:31:36;28.60;;;18.57;;
7074;SDS011;3578;51.568;6.932;2022-08-01T06:34:03;30.43;;;18.70;;
7074;SDS011;3578;51.568;6.932;2022-08-01T06:36:31;28.20;;;17.67;;
7074;SDS011;3578;51.568;6.932;2022-08-01T06:38:58;24.13;;;15.30;;
7074;SDS011;3578;51.568;6.932;2022-08-01T06:41:25;18.13;;;13.47;;
7074;SDS011;3578;51.568;6.932;2022-08-01T06:43:52;16.20;;;12.90;;
7074;SDS011;3578;51.568;6.932;2022-08-01T06:46:20;19.63;;;12.07;;
7074;SDS011;3578;51.568;6.932;2022-08-01T06:48:47;19.90;;;13.50;;
7074;SDS011;3578;51.568;6.932;2022-08-01T06:51:14;20.53;;;13.37;;
7074;SDS011;3578;51.568;6.932;2022-08-01T06:53:44;17.50;;;12.30;;
7074;SDS011;3578;51.568;6.932;2022-08-01T06:56:12;17.10;;;11.83;;
7074;SDS011;3578;51.568;6.932;2022-08-01T06:58:39;14.50;;;11.47;;
7074;SDS011;3578;51.568;6.932;2022-08-01T07:01:06;17.17;;;10.63;;
7074;SDS011;3578;51.568;6.932;2022-08-01T07:03:34;14.17;;;10.10;;
7074;SDS011;3578;51.568;6.932;2022-08-01T07:06:02;13.33;;;10.60;;
7074;SDS011;3578;51.568;6.932;2022-08-01T07:08:29;12.63;;;10.13;;
7074;SDS011;3578;51.568;6.932;2022-08-01T07:10:56;11.83;;;10.00;;
7074;SDS011;3578;51.568;6.932;2022-08-01T07:13:24;14.17;;;9.90;;
7074;SDS011;3578;51.568;6.932;2022-08-01T07:15:52;9.50;;;8.53;;
7074;SDS011;3578;51.568;6.932;2022-08-01T07:18:19;13.03;;;8.97;;
7074;SDS011;3578;51.568;6.932;2022-08-01T07:20:48;10.67;;;8.40;;
7074;SDS011;3578;51.568;6.932;2022-08-01T07:23:15;8.77;;;7.53;;
7074;SDS011;3578;51.568;6.932;2022-08-01T07:25:42;12.00;;;8.10;;
7074;SDS011;3578;51.568;6.932;2022-08-01T07:28:09;10.27;;;9.23;;
7074;SDS011;3578;51.568;6.932;2022-08-01T07:30:36;8.60;;;7.10;;
7074;SDS011;3578;51.568;6.932;2022-08-01T07:33:03;10.47;;;8.33;;
7074;SDS011;3578;51.568;6.932;2022-08-01T07:35:30;8.17;;;7.00;;
7074;SDS011;3578;51.568;6.932;2022-08-01T07:37:59;6.97;;;6.33;;
7074;SDS011;3578;51.568;6.932;2022-08-01T07:40:26;6.93;;;6.23;;
7074;SDS011;3578;51.568;6.932;2022-08-01T07:42:53;7.43;;;6.70;;
7074;SDS011;3578;51.568;6.932;2022-08-01T07:45:20;4.90;;;4.50;;
7074;SDS011;3578;51.568;6.932;2022-08-01T07:47:47;5.13;;;4.60;;
7074;SDS011;3578;51.568;6.932;2022-08-01T07:50:15;3.87;;;3.37;;
7074;SDS011;3578;51.568;6.932;2022-08-01T07:52:42;4.40;;;3.27;;
7074;SDS011;3578;51.568;6.932;2022-08-01T07:55:11;2.93;;;2.70;;
7074;SDS011;3578;51.568;6.932;2022-08-01T07:57:38;2.80;;;2.60;;
7074;SDS011;3578;51.568;6.932;2022-08-01T08:00:06;3.87;;;3.20;;
7074;SDS011;3578;51.568;6.932;2022-08-01T08:02:34;2.90;;;2.70;;
7074;SDS011;3578;51.568;6.932;2022-08-01T08:05:02;2.70;;;2.50;;
7074;SDS011;3578;51.568;6.932;2022-08-01T08:07:29;2.47;;;2.33;;
7074;SDS011;3578;51.568;6.932;2022-08-01T08:09:56;2.50;;;2.33;;
7074;SDS011;3578;51.568;6.932;2022-08-01T08:12:25;2.63;;;2.37;;
7074;SDS011;3578;51.568;6.932;2022-08-01T08:14:52;3.13;;;2.70;;
7074;SDS011;3578;51.568;6.932;2022-08-01T08:17:19;2.00;;;1.80;;
7074;SDS011;3578;51.568;6.932;2022-08-01T08:19:46;1.57;;;1.50;;
7074;SDS011;3578;51.568;6.932;2022-08-01T08:22:13;2.13;;;2.07;;
7074;SDS011;3578;51.568;6.932;2022-08-01T08:24:40;1.97;;;1.87;;
7074;SDS011;3578;51.568;6.932;2022-08-01T08:27:07;2.30;;;2.03;;
7074;SDS011;3578;51.568;6.932;2022-08-01T08:29:35;2.40;;;2.30;;
7074;SDS011;3578;51.568;6.932;2022-08-01T08:32:03;1.90;;;1.80;;
7074;SDS011;3578;51.568;6.932;2022-08-01T08:34:30;2.10;;;2.00;;
7074;SDS011;3578;51.568;6.932;2022-08-01T08:36:57;2.40;;;2.30;;
7074;SDS011;3578;51.568;6.932;2022-08-01T08:39:25;2.80;;;2.60;;
7074;SDS011;3578;51.568;6.932;2022-08-01T08:41:54;1.97;;;1.77;;
7074;SDS011;3578;51.568;6.932;2022-08-01T08:44:22;2.53;;;1.97;;
7074;SDS011;3578;51.568;6.932;2022-08-01T08:46:51;2.17;;;2.07;;
7074;SDS011;3578;51.568;6.932;2022-08-01T08:49:21;2.23;;;2.13;;
7074;SDS011;3578;51.568;6.932;2022-08-01T08:51:52;2.23;;;2.07;;
7074;SDS011;3578;51.568;6.932;2022-08-01T08:54:23;3.30;;;2.30;;
7074;SDS011;3578;51.568;6.932;2022-08-01T08:56:51;2.63;;;2.43;;
7074;SDS011;3578;51.568;6.932;2022-08-01T08:59:19;2.90;;;2.70;;
7074;SDS011;3578;51.568;6.932;2022-08-01T09:01:51;2.77;;;2.67;;
7074;SDS011;3578;51.568;6.932;2022-08-01T09:04:18;2.13;;;2.03;;
7074;SDS011;3578;51.568;6.932;2022-08-01T09:06:48;2.83;;;2.63;;
7074;SDS011;3578;51.568;6.932;2022-08-01T09:09:15;3.60;;;2.13;;
7074;SDS011;3578;51.568;6.932;2022-08-01T09:11:42;2.60;;;2.40;;
7074;SDS011;3578;51.568;6.932;2022-08-01T09:14:11;1.93;;;1.93;;
7074;SDS011;3578;51.568;6.932;2022-08-01T09:16:40;1.50;;;1.50;;
7074;SDS011;3578;51.568;6.932;2022-08-01T09:19:12;1.50;;;1.50;;
7074;SDS011;3578;51.568;6.932;2022-08-01T09:21:55;3.50;;;1.90;;
7074;SDS011;3578;51.568;6.932;2022-08-01T09:24:24;1.67;;;1.67;;
7074;SDS011;3578;51.568;6.932;2022-08-01T09:26:52;2.13;;;2.03;;
7074;SDS011;3578;51.568;6.932;2022-08-01T09:29:21;1.70;;;1.70;;
7074;SDS011;3578;51.568;6.932;2022-08-01T09:31:52;2.27;;;2.07;;
7074;SDS011;3578;51.568;6.932;2022-08-01T09:34:25;2.30;;;2.20;;
7074;SDS011;3578;51.568;6.932;2022-08-01T09:36:54;2.50;;;2.07;;
7074;SDS011;3578;51.568;6.932;2022-08-01T09:39:23;2.00;;;1.90;;
7074;SDS011;3578;51.568;6.932;2022-08-01T09:41:52;2.00;;;1.90;;
7074;SDS011;3578;51.568;6.932;2022-08-01T09:44:36;1.90;;;1.83;;
7074;SDS011;3578;51.568;6.932;2022-08-01T09:47:05;1.67;;;1.00;;
7074;SDS011;3578;51.568;6.932;2022-08-01T09:49:34;1.10;;;1.10;;
7074;SDS011;3578;51.568;6.932;2022-08-01T09:52:10;1.90;;;0.70;;
7074;SDS011;3578;51.568;6.932;2022-08-01T09:54:39;1.70;;;0.70;;
7074;SDS011;3578;51.568;6.932;2022-08-01T09:57:09;0.83;;;0.83;;
7074;SDS011;3578;51.568;6.932;2022-08-01T09:59:39;0.60;;;0.60;;
7074;SDS011;3578;51.568;6.932;2022-08-01T10:02:09;0.60;;;0.60;;
7074;SDS011;3578;51.568;6.932;2022-08-01T10:04:47;0.77;;;0.77;;
7074;SDS011;3578;51.568;6.932;2022-08-01T10:07:15;0.53;;;0.53;;
7074;SDS011;3578;51.568;6.932;2022-08-01T10:09:42;0.60;;;0.60;;
7074;SDS011;3578;51.568;6.932;2022-08-01T10:12:12;1.27;;;0.70;;
7074;SDS011;3578;51.568;6.932;2022-08-01T10:14:41;0.60;;;0.60;;
7074;SDS011;3578;51.568;6.932;2022-08-01T10:17:11;0.60;;;0.60;;
7074;SDS011;3578;51.568;6.932;2022-08-01T10:19:41;3.73;;;0.70;;
7074;SDS011;3578;51.568;6.932;2022-08-01T10:22:11;0.60;;;0.60;;
7074;SDS011;3578;51.568;6.932;2022-08-01T10:24:42;0.90;;;0.70;;
7074;SDS011;3578;51.568;6.932;2022-08-01T10:27:13;0.80;;;0.60;;
7074;SDS011;3578;51.568;6.932;2022-08-01T10:29:46;0.63;;;0.63;;
7074;SDS011;3578;51.568;6.932;2022-08-01T10:32:21;1.90;;;0.60;;
7074;SDS011;3578;51.568;6.932;2022-08-01T10:34:50;0.57;;;0.57;;
7074;SDS011;3578;51.568;6.932;2022-08-01T10:37:19;1.13;;;1.13;;
7074;SDS011;3578;51.568;6.932;2022-08-01T10:39:47;2.57;;;0.60;;
7074;SDS011;3578;51.568;6.932;2022-08-01T10:42:14;1.17;;;0.90;;
7074;SDS011;3578;51.568;6.932;2022-08-01T10:44:41;0.70;;;0.70;;
7074;SDS011;3578;51.568;6.932;2022-08-01T10:47:11;0.60;;;0.60;;
7074;SDS011;3578;51.568;6.932;2022-08-01T10:49:41;0.60;;;0.60;;
7074;SDS011;3578;51.568;6.932;2022-08-01T10:52:16;0.77;;;0.77;;
7074;SDS011;3578;51.568;6.932;2022-08-01T10:54:45;0.57;;;0.57;;
7074;SDS011;3578;51.568;6.932;2022-08-01T10:57:13;0.60;;;0.60;;
7074;SDS011;3578;51.568;6.932;2022-08-01T10:59:50;0.70;;;0.60;;
7074;SDS011;3578;51.568;6.932;2022-08-01T11:02:25;1.17;;;0.57;;
7074;SDS011;3578;51.568;6.932;2022-08-01T11:04:55;0.67;;;0.67;;
7074;SDS011;3578;51.568;6.932;2022-08-01T11:07:35;0.60;;;0.60;;
7074;SDS011;3578;51.568;6.932;2022-08-01T11:10:16;3.13;;;0.80;;
7074;SDS011;3578;51.568;6.932;2022-08-01T11:12:50;0.63;;;0.60;;
7074;SDS011;3578;51.568;6.932;2022-08-01T11:15:18;0.60;;;0.60;;
7074;SDS011;3578;51.568;6.932;2022-08-01T11:17:56;0.80;;;0.70;;
7074;SDS011;3578;51.568;6.932;2022-08-01T11:20:25;0.70;;;0.70;;
7074;SDS011;3578;51.568;6.932;2022-08-01T11:31:43;1.03;;;0.60;;
7074;SDS011;3578;51.568;6.932;2022-08-01T11:34:11;0.70;;;0.70;;
7074;SDS011;3578;51.568;6.932;2022-08-01T11:36:38;0.60;;;0.60;;
7074;SDS011;3578;51.568;6.932;2022-08-01T11:39:15;0.50;;;0.50;;
7074;SDS011;3578;51.568;6.932;2022-08-01T11:41:45;0.70;;;0.70;;
7074;SDS011;3578;51.568;6.932;2022-08-01T11:44:18;1.50;;;0.80;;
7074;SDS011;3578;51.568;6.932;2022-08-01T11:46:57;0.60;;;0.60;;
7074;SDS011;3578;51.568;6.932;2022-08-01T11:49:30;0.70;;;0.70;;
7074;SDS011;3578;51.568;6.932;2022-08-01T11:52:14;0.80;;;0.80;;
7074;SDS011;3578;51.568;6.932;2022-08-01T11:54:42;0.70;;;0.70;;
7074;SDS011;3578;51.568;6.932;2022-08-01T11:57:14;0.70;;;0.70;;
7074;SDS011;3578;51.568;6.932;2022-08-01T11:59:45;0.70;;;0.70;;
7074;SDS011;3578;51.568;6.932;2022-08-01T12:02:18;1.00;;;1.00;;
7074;SDS011;3578;51.568;6.932;2022-08-01T12:04:51;1.83;;;0.70;;
7074;SDS011;3578;51.568;6.932;2022-08-01T12:07:21;2.70;;;0.70;;
7074;SDS011;3578;51.568;6.932;2022-08-01T12:09:56;0.70;;;0.70;;
7074;SDS011;3578;51.568;6.932;2022-08-01T12:12:30;1.37;;;0.73;;
7074;SDS011;3578;51.568;6.932;2022-08-01T12:14:59;1.23;;;0.70;;
7074;SDS011;3578;51.568;6.932;2022-08-01T12:17:28;0.70;;;0.70;;
7074;SDS011;3578;51.568;6.932;2022-08-01T12:20:02;0.90;;;0.80;;
7074;SDS011;3578;51.568;6.932;2022-08-01T12:22:31;1.27;;;0.70;;
7074;SDS011;3578;51.568;6.932;2022-08-01T12:25:04;1.00;;;0.90;;
7074;SDS011;3578;51.568;6.932;2022-08-01T12:27:35;0.73;;;0.73;;
7074;SDS011;3578;51.568;6.932;2022-08-01T12:30:05;1.70;;;0.90;;
7074;SDS011;3578;51.568;6.932;2022-08-01T12:32:34;0.97;;;0.97;;
7074;SDS011;3578;51.568;6.932;2022-08-01T12:35:04;3.30;;;0.97;;
7074;SDS011;3578;51.568;6.932;2022-08-01T12:37:34;1.00;;;1.00;;
7074;SDS011;3578;51.568;6.932;2022-08-01T12:40:09;0.97;;;0.97;;
7074;SDS011;3578;51.568;6.932;2022-08-01T12:42:39;6.73;;;1.87;;
7074;SDS011;3578;51.568;6.932;2022-08-01T12:45:09;3.37;;;1.37;;
7074;SDS011;3578;51.568;6.932;2022-08-01T12:47:39;4.87;;;1.73;;
7074;SDS011;3578;51.568;6.932;2022-08-01T12:50:08;1.37;;;1.13;;
7074;SDS011;3578;51.568;6.932;2022-08-01T12:52:39;1.10;;;1.00;;
7074;SDS011;3578;51.568;6.932;2022-08-01T12:55:07;0.90;;;0.90;;
7074;SDS011;3578;51.568;6.932;2022-08-01T12:57:40;1.20;;;1.10;;
7074;SDS011;3578;51.568;6.932;2022-08-01T13:00:14;1.20;;;1.10;;
7074;SDS011;3578;51.568;6.932;2022-08-01T13:02:47;5.47;;;1.70;;
7074;SDS011;3578;51.568;6.932;2022-08-01T13:05:16;3.43;;;1.30;;
7074;SDS011;3578;51.568;6.932;2022-08-01T13:07:44;1.27;;;1.20;;
7074;SDS011;3578;51.568;6.932;2022-08-01T13:10:14;6.13;;;1.53;;
7074;SDS011;3578;51.568;6.932;2022-08-01T13:12:54;1.30;;;1.20;;
7074;SDS011;3578;51.568;6.932;2022-08-01T13:15:25;1.20;;;1.10;;
7074;SDS011;3578;51.568;6.932;2022-08-01T13:17:56;1.50;;;1.40;;
7074;SDS011;3578;51.568;6.932;2022-08-01T13:20:27;2.60;;;1.13;;
7074;SDS011;3578;51.568;6.932;2022-08-01T13:23:10;0.80;;;0.70;;
7074;SDS011;3578;51.568;6.932;2022-08-01T13:25:46;2.70;;;1.13;;
7074;SDS011;3578;51.568;6.932;2022-08-01T13:28:18;1.40;;;1.30;;
7074;SDS011;3578;51.568;6.932;2022-08-01T13:30:51;1.40;;;1.30;;
7074;SDS011;3578;51.568;6.932;2022-08-01T13:33:23;1.47;;;1.03;;
7074;SDS011;3578;51.568;6.932;2022-08-01T13:35:52;0.83;;;0.83;;
7074;SDS011;3578;51.568;6.932;2022-08-01T13:38:19;1.97;;;1.30;;
7074;SDS011;3578;51.568;6.932;2022-08-01T13:41:08;1.00;;;0.90;;
7074;SDS011;3578;51.568;6.932;2022-08-01T13:43:36;1.07;;;1.07;;
7074;SDS011;3578;51.568;6.932;2022-08-01T13:46:03;1.60;;;0.97;;
7074;SDS011;3578;51.568;6.932;2022-08-01T13:48:31;1.80;;;1.43;;
7074;SDS011;3578;51.568;6.932;2022-08-01T13:50:59;1.50;;;1.47;;
7074;SDS011;3578;51.568;6.932;2022-08-01T13:53:27;1.47;;;1.37;;
7074;SDS011;3578;51.568;6.932;2022-08-01T13:55:54;2.30;;;1.60;;
7074;SDS011;3578;51.568;6.932;2022-08-01T13:58:22;1.10;;;1.10;;
7074;SDS011;3578;51.568;6.932;2022-08-01T14:00:50;2.20;;;1.37;;
7074;SDS011;3578;51.568;6.932;2022-08-01T14:03:18;3.63;;;1.20;;
7074;SDS011;3578;51.568;6.932;2022-08-01T14:05:45;1.90;;;1.37;;
7074;SDS011;3578;51.568;6.932;2022-08-01T14:08:12;2.10;;;1.40;;
7074;SDS011;3578;51.568;6.932;2022-08-01T14:10:39;2.30;;;1.63;;
7074;SDS011;3578;51.568;6.932;2022-08-01T14:13:06;4.27;;;1.60;;
7074;SDS011;3578;51.568;6.932;2022-08-01T14:15:33;4.20;;;1.50;;
7074;SDS011;3578;51.568;6.932;2022-08-01T14:18:02;2.50;;;1.50;;
7074;SDS011;3578;51.568;6.932;2022-08-01T14:20:29;1.70;;;1.33;;
7074;SDS011;3578;51.568;6.932;2022-08-01T14:22:56;3.70;;;2.00;;
7074;SDS011;3578;51.568;6.932;2022-08-01T14:25:23;1.40;;;1.30;;
7074;SDS011;3578;51.568;6.932;2022-08-01T14:27:50;1.50;;;1.40;;
7074;SDS011;3578;51.568;6.932;2022-08-01T14:30:17;1.83;;;1.50;;
7074;SDS011;3578;51.568;6.932;2022-08-01T14:32:44;2.30;;;1.70;;
7074;SDS011;3578;51.568;6.932;2022-08-01T14:35:13;1.93;;;1.70;;
7074;SDS011;3578;51.568;6.932;2022-08-01T14:37:40;2.47;;;1.67;;
7074;SDS011;3578;51.568;6.932;2022-08-01T14:40:07;3.33;;;1.83;;
7074;SDS011;3578;51.568;6.932;2022-08-01T14:42:35;1.60;;;1.60;;
7074;SDS011;3578;51.568;6.932;2022-08-01T14:45:04;2.50;;;1.43;;
7074;SDS011;3578;51.568;6.932;2022-08-01T14:47:34;2.73;;;1.60;;
7074;SDS011;3578;51.568;6.932;2022-08-01T14:50:02;2.57;;;1.80;;
7074;SDS011;3578;51.568;6.932;2022-08-01T14:52:33;1.60;;;1.50;;
7074;SDS011;3578;51.568;6.932;2022-08-01T14:55:00;2.40;;;1.50;;
7074;SDS011;3578;51.568;6.932;2022-08-01T14:57:28;3.53;;;1.67;;
7074;SDS011;3578;51.568;6.932;2022-08-01T14:59:55;2.93;;;2.20;;
7074;SDS011;3578;51.568;6.932;2022-08-01T15:02:22;1.60;;;1.50;;
7074;SDS011;3578;51.568;6.932;2022-08-01T15:04:50;2.50;;;1.50;;
7074;SDS011;3578;51.568;6.932;2022-08-01T15:07:18;3.23;;;1.43;;
7074;SDS011;3578;51.568;6.932;2022-08-01T15:09:46;1.80;;;1.30;;
7074;SDS011;3578;51.568;6.932;2022-08-01T15:12:13;2.90;;;1.30;;
7074;SDS011;3578;51.568;6.932;2022-08-01T15:14:41;1.60;;;1.40;;
7074;SDS011;3578;51.568;6.932;2022-08-01T15:17:14;2.83;;;1.20;;
7074;SDS011;3578;51.568;6.932;2022-08-01T15:19:41;3.43;;;1.17;;
7074;SDS011;3578;51.568;6.932;2022-08-01T15:22:08;1.17;;;1.17;;
7074;SDS011;3578;51.568;6.932;2022-08-01T15:24:35;1.10;;;1.00;;
7074;SDS011;3578;51.568;6.932;2022-08-01T15:27:05;2.47;;;1.20;;